sensor_id;sensor_type;location;lat;lon;timestamp;P1;durP1;ratioP1;P2;durP2;ratioP2
1563;SDS011;775;51.958;7.976;2023-03-13T00:00:48;25.57;;;3.97;;
1563;SDS011;775;51.958;7.976;2023-03-13T00:03:15;18.90;;;3.50;;
1563;SDS011;775;51.958;7.976;2023-03-13T00:05:43;22.23;;;3.80;;
1563;SDS011;775;51.958;7.976;2023-03-13T00:08:10;18.23;;;4.00;;
1563;SDS011;775;51.958;7.976;2023-03-13T00:10:37;19.83;;;4.00;;
1563;SDS011;775;51.958;7.976;2023-03-13T00:13:04;15.73;;;3.47;;
1563;SDS011;775;51.958;7.976;2023-03-13T00:15:33;23.23;;;4.30;;
1563;SDS011;775;51.958;7.976;2023-03-13T00:18:01;16.63;;;3.80;;
1563;SDS011;775;51.958;7.976;2023-03-13T00:20:28;30.40;;;4.87;;
1563;SDS011;775;51.958;7.976;2023-03-13T00:22:55;18.90;;;3.70;;
1563;SDS011;775;51.958;7.976;2023-03-13T00:25:22;26.07;;;3.90;;
1563;SDS011;775;51.958;7.976;2023-03-13T00:27:49;24.33;;;5.00;;
1563;SDS011;775;51.958;7.976;2023-03-13T00:30:16;19.93;;;3.47;;
1563;SDS011;775;51.958;7.976;2023-03-13T00:32:45;23.47;;;3.83;;
1563;SDS011;775;51.958;7.976;2023-03-13T00:35:13;20.13;;;3.27;;
1563;SDS011;775;51.958;7.976;2023-03-13T00:37:40;19.73;;;4.53;;
1563;SDS011;775;51.958;7.976;2023-03-13T00:40:08;21.07;;;3.00;;
1563;SDS011;775;51.958;7.976;2023-03-13T00:42:35;20.93;;;3.60;;
1563;SDS011;775;51.958;7.976;2023-03-13T00:45:02;22.53;;;3.80;;
1563;SDS011;775;51.958;7.976;2023-03-13T00:47:30;17.60;;;3.77;;
1563;SDS011;775;51.958;7.976;2023-03-13T00:49:58;23.83;;;4.10;;
1563;SDS011;775;51.958;7.976;2023-03-13T00:52:25;30.60;;;4.47;;
1563;SDS011;775;51.958;7.976;2023-03-13T00:54:53;24.83;;;3.53;;
1563;SDS011;775;51.958;7.976;2023-03-13T00:57:20;21.53;;;3.30;;
1563;SDS011;775;51.958;7.976;2023-03-13T00:59:47;22.80;;;3.90;;
1563;SDS011;775;51.958;7.976;2023-03-13T01:02:14;22.50;;;3.87;;
1563;SDS011;775;51.958;7.976;2023-03-13T01:04:41;18.23;;;3.50;;
1563;SDS011;775;51.958;7.976;2023-03-13T01:07:09;19.70;;;4.67;;
1563;SDS011;775;51.958;7.976;2023-03-13T01:09:36;21.47;;;3.73;;
1563;SDS011;775;51.958;7.976;2023-03-13T01:12:04;13.50;;;3.07;;
1563;SDS011;775;51.958;7.976;2023-03-13T01:14:31;21.13;;;3.60;;
1563;SDS011;775;51.958;7.976;2023-03-13T01:16:58;16.43;;;3.93;;
1563;SDS011;775;51.958;7.976;2023-03-13T01:19:25;22.93;;;3.40;;
1563;SDS011;775;51.958;7.976;2023-03-13T01:21:52;24.03;;;4.07;;
1563;SDS011;775;51.958;7.976;2023-03-13T01:24:20;23.30;;;3.60;;
1563;SDS011;775;51.958;7.976;2023-03-13T01:26:48;20.33;;;3.40;;
1563;SDS011;775;51.958;7.976;2023-03-13T01:29:15;20.67;;;3.10;;
1563;SDS011;775;51.958;7.976;2023-03-13T01:31:42;17.97;;;3.40;;
1563;SDS011;775;51.958;7.976;2023-03-13T01:34:10;14.80;;;3.20;;
1563;SDS011;775;51.958;7.976;2023-03-13T01:36:37;20.40;;;4.03;;
1563;SDS011;775;51.958;7.976;2023-03-13T01:39:04;23.40;;;3.97;;
1563;SDS011;775;51.958;7.976;2023-03-13T01:41:33;20.47;;;3.67;;
1563;SDS011;775;51.958;7.976;2023-03-13T01:44:00;18.60;;;3.10;;
1563;SDS011;775;51.958;7.976;2023-03-13T01:46:27;28.50;;;3.90;;
1563;SDS011;775;51.958;7.976;2023-03-13T01:48:56;22.43;;;4.10;;
1563;SDS011;775;51.958;7.976;2023-03-13T01:51:26;20.93;;;3.37;;
1563;SDS011;775;51.958;7.976;2023-03-13T01:53:55;24.13;;;3.60;;
1563;SDS011;775;51.958;7.976;2023-03-13T01:56:24;24.13;;;3.90;;
1563;SDS011;775;51.958;7.976;2023-03-13T01:58:54;21.27;;;3.67;;
1563;SDS011;775;51.958;7.976;2023-03-13T02:01:22;20.93;;;3.70;;
1563;SDS011;775;51.958;7.976;2023-03-13T02:03:50;19.33;;;3.70;;
1563;SDS011;775;51.958;7.976;2023-03-13T02:06:17;18.77;;;2.80;;
1563;SDS011;775;51.958;7.976;2023-03-13T02:08:45;15.63;;;3.70;;
1563;SDS011;775;51.958;7.976;2023-03-13T02:11:15;20.83;;;3.43;;
1563;SDS011;775;51.958;7.976;2023-03-13T02:13:45;21.93;;;3.13;;
1563;SDS011;775;51.958;7.976;2023-03-13T02:16:14;18.93;;;3.20;;
1563;SDS011;775;51.958;7.976;2023-03-13T02:18:41;26.23;;;3.40;;
1563;SDS011;775;51.958;7.976;2023-03-13T02:21:10;21.13;;;3.60;;
1563;SDS011;775;51.958;7.976;2023-03-13T02:23:41;18.20;;;3.40;;
1563;SDS011;775;51.958;7.976;2023-03-13T02:26:12;22.43;;;3.87;;
1563;SDS011;775;51.958;7.976;2023-03-13T02:28:39;17.57;;;3.17;;
1563;SDS011;775;51.958;7.976;2023-03-13T02:31:06;22.33;;;4.63;;
1563;SDS011;775;51.958;7.976;2023-03-13T02:33:34;17.97;;;3.33;;
1563;SDS011;775;51.958;7.976;2023-03-13T02:36:03;14.17;;;2.50;;
1563;SDS011;775;51.958;7.976;2023-03-13T02:38:32;17.83;;;3.07;;
1563;SDS011;775;51.958;7.976;2023-03-13T02:41:00;21.90;;;3.50;;
1563;SDS011;775;51.958;7.976;2023-03-13T02:43:31;23.37;;;3.33;;
1563;SDS011;775;51.958;7.976;2023-03-13T02:45:59;16.40;;;3.40;;
1563;SDS011;775;51.958;7.976;2023-03-13T02:48:30;16.97;;;2.90;;
1563;SDS011;775;51.958;7.976;2023-03-13T02:50:57;21.10;;;3.80;;
1563;SDS011;775;51.958;7.976;2023-03-13T02:53:24;16.73;;;2.80;;
1563;SDS011;775;51.958;7.976;2023-03-13T02:55:52;18.43;;;3.00;;
1563;SDS011;775;51.958;7.976;2023-03-13T02:58:19;15.83;;;2.93;;
1563;SDS011;775;51.958;7.976;2023-03-13T03:00:47;22.40;;;3.57;;
1563;SDS011;775;51.958;7.976;2023-03-13T03:03:14;27.53;;;4.20;;
1563;SDS011;775;51.958;7.976;2023-03-13T03:05:41;17.40;;;2.90;;
1563;SDS011;775;51.958;7.976;2023-03-13T03:08:08;21.57;;;3.30;;
1563;SDS011;775;51.958;7.976;2023-03-13T03:10:35;14.97;;;2.80;;
1563;SDS011;775;51.958;7.976;2023-03-13T03:13:03;15.50;;;2.57;;
1563;SDS011;775;51.958;7.976;2023-03-13T03:15:30;18.90;;;3.20;;
1563;SDS011;775;51.958;7.976;2023-03-13T03:17:58;14.47;;;2.40;;
1563;SDS011;775;51.958;7.976;2023-03-13T03:20:25;19.20;;;2.80;;
1563;SDS011;775;51.958;7.976;2023-03-13T03:22:52;18.90;;;2.50;;
1563;SDS011;775;51.958;7.976;2023-03-13T03:25:19;14.33;;;2.43;;
1563;SDS011;775;51.958;7.976;2023-03-13T03:27:46;19.10;;;3.13;;
1563;SDS011;775;51.958;7.976;2023-03-13T03:30:14;17.97;;;2.87;;
1563;SDS011;775;51.958;7.976;2023-03-13T03:32:41;18.83;;;3.37;;
1563;SDS011;775;51.958;7.976;2023-03-13T03:35:09;19.20;;;2.90;;
1563;SDS011;775;51.958;7.976;2023-03-13T03:37:36;16.20;;;2.53;;
1563;SDS011;775;51.958;7.976;2023-03-13T03:40:04;15.93;;;2.93;;
1563;SDS011;775;51.958;7.976;2023-03-13T03:42:31;18.93;;;2.80;;
1563;SDS011;775;51.958;7.976;2023-03-13T03:44:59;14.67;;;2.33;;
1563;SDS011;775;51.958;7.976;2023-03-13T03:47:26;21.67;;;3.03;;
1563;SDS011;775;51.958;7.976;2023-03-13T03:49:53;23.67;;;3.00;;
1563;SDS011;775;51.958;7.976;2023-03-13T03:52:21;14.10;;;2.87;;
1563;SDS011;775;51.958;7.976;2023-03-13T03:54:48;15.30;;;2.83;;
1563;SDS011;775;51.958;7.976;2023-03-13T03:57:15;18.80;;;3.00;;
1563;SDS011;775;51.958;7.976;2023-03-13T03:59:43;17.20;;;2.30;;
1563;SDS011;775;51.958;7.976;2023-03-13T04:02:10;18.03;;;4.67;;
1563;SDS011;775;51.958;7.976;2023-03-13T04:04:37;15.07;;;3.13;;
1563;SDS011;775;51.958;7.976;2023-03-13T04:07:04;14.47;;;2.80;;
1563;SDS011;775;51.958;7.976;2023-03-13T04:09:32;14.07;;;2.33;;
1563;SDS011;775;51.958;7.976;2023-03-13T04:11:59;16.70;;;3.33;;
1563;SDS011;775;51.958;7.976;2023-03-13T04:14:26;12.03;;;2.17;;
1563;SDS011;775;51.958;7.976;2023-03-13T04:16:53;17.33;;;2.67;;
1563;SDS011;775;51.958;7.976;2023-03-13T04:19:21;14.43;;;2.10;;
1563;SDS011;775;51.958;7.976;2023-03-13T04:21:48;14.40;;;2.70;;
1563;SDS011;775;51.958;7.976;2023-03-13T04:24:15;15.27;;;2.83;;
1563;SDS011;775;51.958;7.976;2023-03-13T04:26:43;14.67;;;3.27;;
1563;SDS011;775;51.958;7.976;2023-03-13T04:29:10;18.63;;;2.57;;
1563;SDS011;775;51.958;7.976;2023-03-13T04:31:37;13.47;;;2.70;;
1563;SDS011;775;51.958;7.976;2023-03-13T04:34:04;15.57;;;2.90;;
1563;SDS011;775;51.958;7.976;2023-03-13T04:36:31;13.77;;;2.63;;
1563;SDS011;775;51.958;7.976;2023-03-13T04:38:58;17.10;;;2.10;;
1563;SDS011;775;51.958;7.976;2023-03-13T04:41:26;15.20;;;2.60;;
1563;SDS011;775;51.958;7.976;2023-03-13T04:43:54;12.53;;;2.63;;
1563;SDS011;775;51.958;7.976;2023-03-13T04:46:21;13.90;;;2.70;;
1563;SDS011;775;51.958;7.976;2023-03-13T04:48:48;13.20;;;2.47;;
1563;SDS011;775;51.958;7.976;2023-03-13T04:51:15;18.43;;;2.67;;
1563;SDS011;775;51.958;7.976;2023-03-13T04:53:42;14.60;;;2.80;;
1563;SDS011;775;51.958;7.976;2023-03-13T04:56:10;14.40;;;2.57;;
1563;SDS011;775;51.958;7.976;2023-03-13T04:58:37;14.13;;;2.50;;
1563;SDS011;775;51.958;7.976;2023-03-13T05:01:06;16.77;;;2.50;;
1563;SDS011;775;51.958;7.976;2023-03-13T05:03:33;12.40;;;2.50;;
1563;SDS011;775;51.958;7.976;2023-03-13T05:06:00;13.00;;;2.90;;
1563;SDS011;775;51.958;7.976;2023-03-13T05:08:27;14.20;;;3.07;;
1563;SDS011;775;51.958;7.976;2023-03-13T05:10:54;13.47;;;2.83;;
1563;SDS011;775;51.958;7.976;2023-03-13T05:13:21;12.57;;;3.13;;
1563;SDS011;775;51.958;7.976;2023-03-13T05:15:48;12.37;;;3.10;;
1563;SDS011;775;51.958;7.976;2023-03-13T05:18:17;12.73;;;3.10;;
1563;SDS011;775;51.958;7.976;2023-03-13T05:20:44;14.43;;;2.83;;
1563;SDS011;775;51.958;7.976;2023-03-13T05:23:11;12.00;;;2.07;;
1563;SDS011;775;51.958;7.976;2023-03-13T05:25:38;13.70;;;3.30;;
1563;SDS011;775;51.958;7.976;2023-03-13T05:28:05;12.17;;;2.97;;
1563;SDS011;775;51.958;7.976;2023-03-13T05:30:32;12.83;;;2.93;;
1563;SDS011;775;51.958;7.976;2023-03-13T05:32:59;12.50;;;3.20;;
1563;SDS011;775;51.958;7.976;2023-03-13T05:35:28;14.80;;;3.40;;
1563;SDS011;775;51.958;7.976;2023-03-13T05:37:55;13.23;;;4.03;;
1563;SDS011;775;51.958;7.976;2023-03-13T05:40:22;15.93;;;4.00;;
1563;SDS011;775;51.958;7.976;2023-03-13T05:42:49;15.80;;;3.37;;
1563;SDS011;775;51.958;7.976;2023-03-13T05:45:16;14.20;;;3.53;;
1563;SDS011;775;51.958;7.976;2023-03-13T05:47:43;13.73;;;3.80;;
1563;SDS011;775;51.958;7.976;2023-03-13T05:50:10;16.10;;;3.90;;
1563;SDS011;775;51.958;7.976;2023-03-13T05:52:39;13.80;;;4.20;;
1563;SDS011;775;51.958;7.976;2023-03-13T05:55:06;13.77;;;3.83;;
1563;SDS011;775;51.958;7.976;2023-03-13T05:57:33;11.87;;;3.67;;
1563;SDS011;775;51.958;7.976;2023-03-13T06:00:00;12.70;;;3.93;;
1563;SDS011;775;51.958;7.976;2023-03-13T06:02:27;16.50;;;3.50;;
1563;SDS011;775;51.958;7.976;2023-03-13T06:04:54;14.93;;;4.40;;
1563;SDS011;775;51.958;7.976;2023-03-13T06:07:22;11.80;;;3.60;;
1563;SDS011;775;51.958;7.976;2023-03-13T06:09:50;15.50;;;3.60;;
1563;SDS011;775;51.958;7.976;2023-03-13T06:12:17;15.43;;;3.37;;
1563;SDS011;775;51.958;7.976;2023-03-13T06:14:44;13.67;;;3.60;;
1563;SDS011;775;51.958;7.976;2023-03-13T06:17:11;13.20;;;4.17;;
1563;SDS011;775;51.958;7.976;2023-03-13T06:19:38;13.50;;;3.50;;
1563;SDS011;775;51.958;7.976;2023-03-13T06:22:05;12.57;;;4.07;;
1563;SDS011;775;51.958;7.976;2023-03-13T06:24:33;12.97;;;4.03;;
1563;SDS011;775;51.958;7.976;2023-03-13T06:27:01;14.50;;;3.90;;
1563;SDS011;775;51.958;7.976;2023-03-13T06:29:28;12.97;;;4.90;;
1563;SDS011;775;51.958;7.976;2023-03-13T06:31:55;12.93;;;4.20;;
1563;SDS011;775;51.958;7.976;2023-03-13T06:34:22;12.83;;;4.30;;
1563;SDS011;775;51.958;7.976;2023-03-13T06:36:49;15.83;;;5.30;;
1563;SDS011;775;51.958;7.976;2023-03-13T06:39:16;17.07;;;4.80;;
1563;SDS011;775;51.958;7.976;2023-03-13T06:41:43;14.30;;;4.27;;
1563;SDS011;775;51.958;7.976;2023-03-13T06:44:12;13.50;;;4.83;;
1563;SDS011;775;51.958;7.976;2023-03-13T06:46:39;14.10;;;5.37;;
1563;SDS011;775;51.958;7.976;2023-03-13T06:49:06;14.03;;;4.77;;
1563;SDS011;775;51.958;7.976;2023-03-13T06:51:33;14.70;;;5.83;;
1563;SDS011;775;51.958;7.976;2023-03-13T06:54:00;15.87;;;6.87;;
1563;SDS011;775;51.958;7.976;2023-03-13T06:56:28;19.87;;;9.80;;
1563;SDS011;775;51.958;7.976;2023-03-13T06:58:55;28.00;;;11.00;;
1563;SDS011;775;51.958;7.976;2023-03-13T07:01:23;18.90;;;9.83;;
1563;SDS011;775;51.958;7.976;2023-03-13T07:03:50;19.80;;;9.27;;
1563;SDS011;775;51.958;7.976;2023-03-13T07:06:17;16.30;;;6.17;;
1563;SDS011;775;51.958;7.976;2023-03-13T07:08:44;18.17;;;7.10;;
1563;SDS011;775;51.958;7.976;2023-03-13T07:11:13;13.93;;;4.83;;
1563;SDS011;775;51.958;7.976;2023-03-13T07:13:40;13.90;;;4.40;;
1563;SDS011;775;51.958;7.976;2023-03-13T07:16:08;14.50;;;5.53;;
1563;SDS011;775;51.958;7.976;2023-03-13T07:18:38;14.43;;;5.67;;
1563;SDS011;775;51.958;7.976;2023-03-13T07:21:08;14.43;;;5.90;;
1563;SDS011;775;51.958;7.976;2023-03-13T07:23:36;16.33;;;5.73;;
1563;SDS011;775;51.958;7.976;2023-03-13T07:26:04;13.37;;;5.03;;
1563;SDS011;775;51.958;7.976;2023-03-13T07:28:31;15.77;;;5.03;;
1563;SDS011;775;51.958;7.976;2023-03-13T07:31:02;13.83;;;4.73;;
1563;SDS011;775;51.958;7.976;2023-03-13T07:33:29;14.33;;;4.50;;
1563;SDS011;775;51.958;7.976;2023-03-13T07:35:58;13.20;;;3.70;;
1563;SDS011;775;51.958;7.976;2023-03-13T07:38:25;12.87;;;3.60;;
1563;SDS011;775;51.958;7.976;2023-03-13T07:40:53;13.40;;;3.90;;
1563;SDS011;775;51.958;7.976;2023-03-13T07:43:20;13.93;;;4.07;;
1563;SDS011;775;51.958;7.976;2023-03-13T07:45:51;13.67;;;4.27;;
1563;SDS011;775;51.958;7.976;2023-03-13T07:48:18;14.27;;;3.60;;
1563;SDS011;775;51.958;7.976;2023-03-13T07:50:45;13.07;;;3.57;;
1563;SDS011;775;51.958;7.976;2023-03-13T07:53:14;13.80;;;3.70;;
1563;SDS011;775;51.958;7.976;2023-03-13T07:55:50;12.47;;;4.00;;
1563;SDS011;775;51.958;7.976;2023-03-13T07:58:17;13.00;;;3.47;;
1563;SDS011;775;51.958;7.976;2023-03-13T08:00:44;15.47;;;3.60;;
1563;SDS011;775;51.958;7.976;2023-03-13T08:03:11;12.03;;;3.07;;
1563;SDS011;775;51.958;7.976;2023-03-13T08:05:39;11.90;;;3.10;;
1563;SDS011;775;51.958;7.976;2023-03-13T08:08:06;12.60;;;3.23;;
1563;SDS011;775;51.958;7.976;2023-03-13T08:10:34;13.33;;;3.60;;
1563;SDS011;775;51.958;7.976;2023-03-13T08:13:01;14.07;;;3.00;;
1563;SDS011;775;51.958;7.976;2023-03-13T08:15:29;13.13;;;3.57;;
1563;SDS011;775;51.958;7.976;2023-03-13T08:17:56;15.17;;;3.00;;
1563;SDS011;775;51.958;7.976;2023-03-13T08:20:23;13.93;;;4.20;;
1563;SDS011;775;51.958;7.976;2023-03-13T08:22:50;11.90;;;3.37;;
1563;SDS011;775;51.958;7.976;2023-03-13T08:25:17;12.83;;;3.37;;
1563;SDS011;775;51.958;7.976;2023-03-13T08:27:45;14.07;;;3.97;;
1563;SDS011;775;51.958;7.976;2023-03-13T08:30:13;15.37;;;4.07;;
1563;SDS011;775;51.958;7.976;2023-03-13T08:32:40;14.50;;;2.90;;
1563;SDS011;775;51.958;7.976;2023-03-13T08:35:07;12.13;;;3.00;;
1563;SDS011;775;51.958;7.976;2023-03-13T08:37:34;13.83;;;3.00;;
1563;SDS011;775;51.958;7.976;2023-03-13T08:40:01;14.00;;;3.27;;
1563;SDS011;775;51.958;7.976;2023-03-13T08:42:34;12.27;;;3.33;;
1563;SDS011;775;51.958;7.976;2023-03-13T08:45:03;11.37;;;2.90;;
1563;SDS011;775;51.958;7.976;2023-03-13T08:47:30;12.73;;;2.87;;
1563;SDS011;775;51.958;7.976;2023-03-13T08:49:57;13.10;;;3.47;;
1563;SDS011;775;51.958;7.976;2023-03-13T08:52:24;12.63;;;2.57;;
1563;SDS011;775;51.958;7.976;2023-03-13T08:54:51;10.70;;;2.50;;
1563;SDS011;775;51.958;7.976;2023-03-13T08:57:18;14.50;;;3.50;;
1563;SDS011;775;51.958;7.976;2023-03-13T08:59:46;12.80;;;3.47;;
1563;SDS011;775;51.958;7.976;2023-03-13T09:02:14;17.77;;;3.47;;
1563;SDS011;775;51.958;7.976;2023-03-13T09:04:45;15.80;;;3.10;;
1563;SDS011;775;51.958;7.976;2023-03-13T09:07:12;13.00;;;2.90;;
1563;SDS011;775;51.958;7.976;2023-03-13T09:09:39;12.07;;;2.97;;
1563;SDS011;775;51.958;7.976;2023-03-13T09:12:07;11.80;;;2.87;;
1563;SDS011;775;51.958;7.976;2023-03-13T09:14:34;13.20;;;3.70;;
1563;SDS011;775;51.958;7.976;2023-03-13T09:17:01;12.23;;;3.30;;
1563;SDS011;775;51.958;7.976;2023-03-13T09:19:30;16.57;;;4.20;;
1563;SDS011;775;51.958;7.976;2023-03-13T09:21:57;14.73;;;3.40;;
1563;SDS011;775;51.958;7.976;2023-03-13T09:24:24;13.50;;;3.57;;
1563;SDS011;775;51.958;7.976;2023-03-13T09:26:51;12.47;;;3.27;;
1563;SDS011;775;51.958;7.976;2023-03-13T09:29:19;14.87;;;3.77;;
1563;SDS011;775;51.958;7.976;2023-03-13T09:31:46;12.17;;;3.13;;
1563;SDS011;775;51.958;7.976;2023-03-13T09:34:13;14.07;;;3.50;;
1563;SDS011;775;51.958;7.976;2023-03-13T09:36:41;17.33;;;3.70;;
1563;SDS011;775;51.958;7.976;2023-03-13T09:39:08;20.17;;;5.10;;
1563;SDS011;775;51.958;7.976;2023-03-13T09:41:37;22.40;;;5.13;;
1563;SDS011;775;51.958;7.976;2023-03-13T09:44:15;13.20;;;3.77;;
1563;SDS011;775;51.958;7.976;2023-03-13T09:46:44;14.43;;;4.70;;
1563;SDS011;775;51.958;7.976;2023-03-13T09:49:16;12.23;;;3.93;;
1563;SDS011;775;51.958;7.976;2023-03-13T09:51:49;15.90;;;4.80;;
1563;SDS011;775;51.958;7.976;2023-03-13T09:54:23;14.63;;;4.10;;
1563;SDS011;775;51.958;7.976;2023-03-13T09:56:51;16.90;;;4.27;;
1563;SDS011;775;51.958;7.976;2023-03-13T09:59:21;16.13;;;4.03;;
1563;SDS011;775;51.958;7.976;2023-03-13T10:01:50;12.97;;;3.40;;
1563;SDS011;775;51.958;7.976;2023-03-13T10:04:26;14.00;;;3.77;;
1563;SDS011;775;51.958;7.976;2023-03-13T10:06:55;13.20;;;4.30;;
1563;SDS011;775;51.958;7.976;2023-03-13T10:09:25;14.53;;;4.50;;
1563;SDS011;775;51.958;7.976;2023-03-13T10:11:55;13.40;;;3.77;;
1563;SDS011;775;51.958;7.976;2023-03-13T10:14:27;14.17;;;3.83;;
1563;SDS011;775;51.958;7.976;2023-03-13T10:16:55;14.73;;;4.10;;
1563;SDS011;775;51.958;7.976;2023-03-13T10:19:27;12.63;;;3.43;;
1563;SDS011;775;51.958;7.976;2023-03-13T10:21:59;12.60;;;3.73;;
1563;SDS011;775;51.958;7.976;2023-03-13T10:24:29;21.43;;;6.03;;
1563;SDS011;775;51.958;7.976;2023-03-13T10:26:58;16.77;;;3.70;;
1563;SDS011;775;51.958;7.976;2023-03-13T10:29:25;15.13;;;4.37;;
1563;SDS011;775;51.958;7.976;2023-03-13T10:31:54;14.57;;;4.10;;
1563;SDS011;775;51.958;7.976;2023-03-13T10:34:22;12.00;;;3.87;;
1563;SDS011;775;51.958;7.976;2023-03-13T10:36:53;13.70;;;3.47;;
1563;SDS011;775;51.958;7.976;2023-03-13T10:39:22;11.83;;;3.03;;
1563;SDS011;775;51.958;7.976;2023-03-13T10:41:52;14.50;;;3.60;;
1563;SDS011;775;51.958;7.976;2023-03-13T10:44:22;19.00;;;4.20;;
1563;SDS011;775;51.958;7.976;2023-03-13T10:46:49;12.90;;;3.50;;
1563;SDS011;775;51.958;7.976;2023-03-13T10:49:18;15.50;;;3.73;;
1563;SDS011;775;51.958;7.976;2023-03-13T10:51:45;13.70;;;3.90;;
1563;SDS011;775;51.958;7.976;2023-03-13T10:54:14;18.30;;;3.90;;
1563;SDS011;775;51.958;7.976;2023-03-13T10:56:43;15.97;;;4.20;;
1563;SDS011;775;51.958;7.976;2023-03-13T10:59:17;13.10;;;4.10;;
1563;SDS011;775;51.958;7.976;2023-03-13T11:01:45;12.50;;;3.50;;
1563;SDS011;775;51.958;7.976;2023-03-13T11:04:24;12.67;;;3.50;;
1563;SDS011;775;51.958;7.976;2023-03-13T11:06:57;13.60;;;3.57;;
1563;SDS011;775;51.958;7.976;2023-03-13T11:09:24;13.83;;;3.47;;
1563;SDS011;775;51.958;7.976;2023-03-13T11:11:53;13.27;;;3.50;;
1563;SDS011;775;51.958;7.976;2023-03-13T11:14:21;12.73;;;3.50;;
1563;SDS011;775;51.958;7.976;2023-03-13T11:16:49;13.03;;;3.23;;
1563;SDS011;775;51.958;7.976;2023-03-13T11:19:27;13.77;;;3.40;;
1563;SDS011;775;51.958;7.976;2023-03-13T11:22:04;15.90;;;3.27;;
1563;SDS011;775;51.958;7.976;2023-03-13T11:24:35;13.43;;;3.83;;
1563;SDS011;775;51.958;7.976;2023-03-13T11:27:08;13.67;;;3.50;;
1563;SDS011;775;51.958;7.976;2023-03-13T11:29:43;14.43;;;2.83;;
1563;SDS011;775;51.958;7.976;2023-03-13T11:32:16;12.83;;;3.50;;
1563;SDS011;775;51.958;7.976;2023-03-13T11:34:46;15.50;;;3.90;;
1563;SDS011;775;51.958;7.976;2023-03-13T11:37:16;15.60;;;3.80;;
1563;SDS011;775;51.958;7.976;2023-03-13T11:39:52;12.50;;;2.77;;
1563;SDS011;775;51.958;7.976;2023-03-13T11:45:10;14.50;;;3.40;;
1563;SDS011;775;51.958;7.976;2023-03-13T11:47:41;14.00;;;3.30;;
1563;SDS011;775;51.958;7.976;2023-03-13T11:50:22;13.50;;;3.00;;
1563;SDS011;775;51.958;7.976;2023-03-13T11:52:55;12.97;;;3.50;;
1563;SDS011;775;51.958;7.976;2023-03-13T11:58:13;12.80;;;3.47;;
1563;SDS011;775;51.958;7.976;2023-03-13T12:00:45;12.80;;;3.47;;
1563;SDS011;775;51.958;7.976;2023-03-13T12:03:15;12.60;;;3.20;;
1563;SDS011;775;51.958;7.976;2023-03-13T12:05:46;13.10;;;3.17;;
1563;SDS011;775;51.958;7.976;2023-03-13T12:08:16;15.60;;;3.50;;
1563;SDS011;775;51.958;7.976;2023-03-13T12:10:46;12.30;;;2.90;;
1563;SDS011;775;51.958;7.976;2023-03-13T12:13:15;14.20;;;3.30;;
1563;SDS011;775;51.958;7.976;2023-03-13T12:15:45;13.07;;;2.70;;
1563;SDS011;775;51.958;7.976;2023-03-13T12:18:16;13.27;;;2.40;;
1563;SDS011;775;51.958;7.976;2023-03-13T12:20:45;12.40;;;2.70;;
1563;SDS011;775;51.958;7.976;2023-03-13T12:23:18;11.40;;;2.60;;
1563;SDS011;775;51.958;7.976;2023-03-13T12:25:47;10.87;;;2.27;;
1563;SDS011;775;51.958;7.976;2023-03-13T12:28:24;11.57;;;2.37;;
1563;SDS011;775;51.958;7.976;2023-03-13T12:30:57;11.27;;;2.10;;
1563;SDS011;775;51.958;7.976;2023-03-13T12:33:25;13.83;;;2.60;;
1563;SDS011;775;51.958;7.976;2023-03-13T12:35:56;11.53;;;2.43;;
1563;SDS011;775;51.958;7.976;2023-03-13T12:38:27;11.50;;;2.40;;
1563;SDS011;775;51.958;7.976;2023-03-13T12:40:59;10.90;;;2.47;;
1563;SDS011;775;51.958;7.976;2023-03-13T12:43:29;10.97;;;2.23;;
1563;SDS011;775;51.958;7.976;2023-03-13T12:46:05;14.83;;;2.33;;
1563;SDS011;775;51.958;7.976;2023-03-13T12:48:44;11.97;;;2.13;;
1563;SDS011;775;51.958;7.976;2023-03-13T12:51:19;11.30;;;2.23;;
1563;SDS011;775;51.958;7.976;2023-03-13T12:54:05;12.50;;;2.50;;
1563;SDS011;775;51.958;7.976;2023-03-13T12:56:48;11.27;;;2.17;;
1563;SDS011;775;51.958;7.976;2023-03-13T12:59:19;10.80;;;2.00;;
1563;SDS011;775;51.958;7.976;2023-03-13T13:01:49;11.43;;;2.10;;
1563;SDS011;775;51.958;7.976;2023-03-13T13:04:18;12.20;;;2.40;;
1563;SDS011;775;51.958;7.976;2023-03-13T13:06:53;10.40;;;1.70;;
1563;SDS011;775;51.958;7.976;2023-03-13T13:09:22;12.10;;;2.20;;
1563;SDS011;775;51.958;7.976;2023-03-13T13:11:50;10.93;;;1.90;;
1563;SDS011;775;51.958;7.976;2023-03-13T13:17:23;12.53;;;2.20;;
1563;SDS011;775;51.958;7.976;2023-03-13T13:19:52;10.57;;;1.83;;
1563;SDS011;775;51.958;7.976;2023-03-13T13:27:47;11.20;;;2.20;;
1563;SDS011;775;51.958;7.976;2023-03-13T13:30:28;11.70;;;2.13;;
1563;SDS011;775;51.958;7.976;2023-03-13T13:32:57;12.07;;;2.60;;
1563;SDS011;775;51.958;7.976;2023-03-13T13:35:45;12.30;;;2.10;;
1563;SDS011;775;51.958;7.976;2023-03-13T13:38:20;10.70;;;1.70;;
1563;SDS011;775;51.958;7.976;2023-03-13T13:41:00;10.57;;;1.80;;
1563;SDS011;775;51.958;7.976;2023-03-13T13:43:28;10.43;;;1.50;;
1563;SDS011;775;51.958;7.976;2023-03-13T13:45:58;15.00;;;2.10;;
1563;SDS011;775;51.958;7.976;2023-03-13T13:48:27;11.83;;;1.80;;
1563;SDS011;775;51.958;7.976;2023-03-13T13:53:45;14.73;;;2.33;;
1563;SDS011;775;51.958;7.976;2023-03-13T13:59:02;10.70;;;1.93;;
1563;SDS011;775;51.958;7.976;2023-03-13T14:01:30;10.63;;;1.53;;
1563;SDS011;775;51.958;7.976;2023-03-13T14:04:00;11.20;;;1.80;;
1563;SDS011;775;51.958;7.976;2023-03-13T14:06:31;11.13;;;1.77;;
1563;SDS011;775;51.958;7.976;2023-03-13T14:09:09;12.23;;;2.03;;
1563;SDS011;775;51.958;7.976;2023-03-13T14:11:37;11.40;;;1.80;;
1563;SDS011;775;51.958;7.976;2023-03-13T14:14:08;11.10;;;2.07;;
1563;SDS011;775;51.958;7.976;2023-03-13T14:16:36;12.03;;;1.73;;
1563;SDS011;775;51.958;7.976;2023-03-13T14:19:03;11.50;;;1.87;;
1563;SDS011;775;51.958;7.976;2023-03-13T14:21:30;11.60;;;1.80;;
1563;SDS011;775;51.958;7.976;2023-03-13T14:23:58;11.23;;;1.80;;
1563;SDS011;775;51.958;7.976;2023-03-13T14:26:27;17.67;;;1.93;;
1563;SDS011;775;51.958;7.976;2023-03-13T14:28:55;13.60;;;1.90;;
1563;SDS011;775;51.958;7.976;2023-03-13T14:31:24;12.13;;;2.20;;
1563;SDS011;775;51.958;7.976;2023-03-13T14:33:51;10.77;;;1.70;;
1563;SDS011;775;51.958;7.976;2023-03-13T14:36:19;13.90;;;1.70;;
1563;SDS011;775;51.958;7.976;2023-03-13T14:38:49;10.60;;;1.60;;
1563;SDS011;775;51.958;7.976;2023-03-13T14:41:25;12.37;;;1.60;;
1563;SDS011;775;51.958;7.976;2023-03-13T14:43:54;10.13;;;1.13;;
1563;SDS011;775;51.958;7.976;2023-03-13T14:46:28;11.10;;;2.00;;
1563;SDS011;775;51.958;7.976;2023-03-13T14:48:55;11.80;;;1.80;;
1563;SDS011;775;51.958;7.976;2023-03-13T14:51:23;10.27;;;1.40;;
1563;SDS011;775;51.958;7.976;2023-03-13T14:53:54;11.67;;;1.60;;
1563;SDS011;775;51.958;7.976;2023-03-13T14:56:29;11.00;;;1.80;;
1563;SDS011;775;51.958;7.976;2023-03-13T14:59:06;11.67;;;1.60;;
1563;SDS011;775;51.958;7.976;2023-03-13T15:01:33;11.83;;;1.83;;
1563;SDS011;775;51.958;7.976;2023-03-13T15:04:00;10.93;;;1.80;;
1563;SDS011;775;51.958;7.976;2023-03-13T15:06:27;11.90;;;2.20;;
1563;SDS011;775;51.958;7.976;2023-03-13T15:09:14;12.70;;;1.97;;
1563;SDS011;775;51.958;7.976;2023-03-13T15:11:42;11.10;;;1.67;;
1563;SDS011;775;51.958;7.976;2023-03-13T15:17:02;12.17;;;2.00;;
1563;SDS011;775;51.958;7.976;2023-03-13T15:19:29;11.27;;;1.80;;
1563;SDS011;775;51.958;7.976;2023-03-13T15:21:56;13.30;;;1.80;;
1563;SDS011;775;51.958;7.976;2023-03-13T15:24:23;10.60;;;1.70;;
1563;SDS011;775;51.958;7.976;2023-03-13T15:26:50;12.50;;;1.80;;
1563;SDS011;775;51.958;7.976;2023-03-13T15:29:17;12.47;;;1.60;;
1563;SDS011;775;51.958;7.976;2023-03-13T15:31:44;12.03;;;1.90;;
1563;SDS011;775;51.958;7.976;2023-03-13T15:34:13;11.57;;;1.87;;
1563;SDS011;775;51.958;7.976;2023-03-13T15:36:41;11.10;;;1.67;;
1563;SDS011;775;51.958;7.976;2023-03-13T15:39:09;10.87;;;1.87;;
1563;SDS011;775;51.958;7.976;2023-03-13T15:41:39;10.80;;;2.00;;
1563;SDS011;775;51.958;7.976;2023-03-13T15:44:06;12.23;;;2.00;;
1563;SDS011;775;51.958;7.976;2023-03-13T15:46:33;13.77;;;2.30;;